createdAt,value
2023-05-22T00:01:30.252Z,20.15
2023-05-22T00:03:57.331Z,20.13
2023-05-22T00:06:24.721Z,20.13
2023-05-22T00:08:51.837Z,20.12
2023-05-22T00:11:18.931Z,20.14
2023-05-22T00:13:46.602Z,20.13
2023-05-22T00:16:13.822Z,20.11
2023-05-22T00:18:44.935Z,20.11
2023-05-22T00:21:12.232Z,20.10
2023-05-22T00:23:39.276Z,20.09
2023-05-22T00:26:06.503Z,20.07
2023-05-22T00:28:33.573Z,20.04
2023-05-22T00:31:02.984Z,20.02
2023-05-22T00:33:30.113Z,20.00
2023-05-22T00:35:57.252Z,19.96
2023-05-22T00:38:32.993Z,19.96
2023-05-22T00:41:01.019Z,19.90
2023-05-22T00:43:28.378Z,19.86
2023-05-22T00:45:55.828Z,19.85
2023-05-22T00:48:23.546Z,19.86
2023-05-22T00:50:52.278Z,19.84
2023-05-22T00:53:24.550Z,19.84
2023-05-22T00:55:54.124Z,19.78
2023-05-22T00:58:22.025Z,19.74
2023-05-22T01:00:49.256Z,19.66
2023-05-22T01:03:17.878Z,19.62
2023-05-22T01:05:45.501Z,19.57
2023-05-22T01:08:12.689Z,19.52
2023-05-22T01:10:40.750Z,19.48
2023-05-22T01:13:40.781Z,19.49
2023-05-22T01:16:35.273Z,19.40
2023-05-22T01:19:22.108Z,19.36
2023-05-22T01:22:06.832Z,19.33
2023-05-22T01:25:00.596Z,19.24
2023-05-22T01:27:58.536Z,19.21
2023-05-22T01:30:55.485Z,19.13
2023-05-22T01:33:26.386Z,19.05
2023-05-22T01:35:57.558Z,19.04
2023-05-22T01:38:25.275Z,18.98
2023-05-22T01:40:54.080Z,18.94
2023-05-22T01:43:21.538Z,18.90
2023-05-22T01:45:48.681Z,18.90
2023-05-22T01:48:16.396Z,18.87
2023-05-22T01:50:45.544Z,18.84
2023-05-22T01:53:28.503Z,18.79
2023-05-22T01:56:06.642Z,18.76
2023-05-22T01:58:43.145Z,18.73
2023-05-22T02:01:12.310Z,18.70
2023-05-22T02:03:40.344Z,18.69
2023-05-22T02:06:10.305Z,18.68
2023-05-22T02:08:39.840Z,18.67
2023-05-22T02:11:08.302Z,18.65
2023-05-22T02:13:35.834Z,18.61
2023-05-22T02:16:04.279Z,18.57
2023-05-22T02:18:31.697Z,18.49
2023-05-22T02:20:59.483Z,18.39
2023-05-22T02:23:29.982Z,18.37
2023-05-22T02:25:57.330Z,18.31
2023-05-22T02:28:24.606Z,18.28
2023-05-22T02:30:51.821Z,18.25
2023-05-22T02:33:19.176Z,18.20
2023-05-22T02:35:46.363Z,18.19
2023-05-22T02:38:13.962Z,18.15
2023-05-22T02:40:41.248Z,18.17
2023-05-22T02:43:08.584Z,18.19
2023-05-22T02:45:35.750Z,18.18
2023-05-22T02:48:03.966Z,18.15
2023-05-22T02:50:31.077Z,18.17
2023-05-22T02:52:58.201Z,18.19
2023-05-22T02:55:25.278Z,18.17
2023-05-22T02:57:55.744Z,18.16
2023-05-22T03:00:23.181Z,18.16
2023-05-22T03:02:50.374Z,18.10
2023-05-22T03:05:18.293Z,18.12
2023-05-22T03:07:48.370Z,18.10
2023-05-22T03:10:16.164Z,18.11
2023-05-22T03:12:43.420Z,18.09
2023-05-22T03:15:11.643Z,18.09
2023-05-22T03:17:38.763Z,18.06
2023-05-22T03:20:07.131Z,18.05
2023-05-22T03:22:34.222Z,18.05
2023-05-22T03:25:01.850Z,18.07
2023-05-22T03:27:29.339Z,18.15
2023-05-22T03:29:56.445Z,18.17
2023-05-22T03:32:23.723Z,18.19
2023-05-22T03:34:50.900Z,18.19
2023-05-22T03:37:17.987Z,18.22
2023-05-22T03:39:45.096Z,18.24
2023-05-22T03:42:13.725Z,18.28
2023-05-22T03:44:40.833Z,18.29
2023-05-22T03:47:08.202Z,18.20
2023-05-22T03:49:35.409Z,18.11
2023-05-22T03:52:03.065Z,18.13
2023-05-22T03:54:30.108Z,18.17
2023-05-22T03:56:57.143Z,18.20
2023-05-22T03:59:24.435Z,18.21
2023-05-22T04:01:51.533Z,18.24
2023-05-22T04:04:18.592Z,18.20
2023-05-22T04:06:45.900Z,18.19
2023-05-22T04:09:13.525Z,18.18
2023-05-22T04:11:42.425Z,18.18
2023-05-22T04:14:10.307Z,18.18
2023-05-22T04:16:37.388Z,18.16
2023-05-22T04:19:04.649Z,18.19
2023-05-22T04:21:34.565Z,18.21
2023-05-22T04:24:07.542Z,18.17
2023-05-22T04:26:34.886Z,18.15
2023-05-22T04:29:02.655Z,18.16
2023-05-22T04:31:30.442Z,18.16
2023-05-22T04:34:00.384Z,18.20
2023-05-22T04:36:28.175Z,18.22
2023-05-22T04:38:55.683Z,18.26
2023-05-22T04:41:26.625Z,18.30
2023-05-22T04:43:54.782Z,18.32
2023-05-22T04:46:22.701Z,18.36
2023-05-22T04:48:49.912Z,18.35
2023-05-22T04:51:17.155Z,18.36
2023-05-22T04:53:44.500Z,18.35
2023-05-22T04:56:13.118Z,18.37
2023-05-22T04:58:41.855Z,18.40
2023-05-22T05:01:09.776Z,18.45
2023-05-22T05:03:37.013Z,18.49
2023-05-22T05:06:04.371Z,18.53
2023-05-22T05:08:31.477Z,18.52
2023-05-22T05:10:58.537Z,18.54
2023-05-22T05:13:25.666Z,18.56
2023-05-22T05:15:52.789Z,18.57
2023-05-22T05:18:20.358Z,18.62
2023-05-22T05:20:47.447Z,18.64
2023-05-22T05:23:15.512Z,18.64
2023-05-22T05:25:42.736Z,18.67
2023-05-22T05:28:11.855Z,18.65
2023-05-22T05:30:40.224Z,18.69
2023-05-22T05:33:07.695Z,18.75
2023-05-22T05:35:35.005Z,18.79
2023-05-22T05:38:02.115Z,18.82
2023-05-22T05:40:29.364Z,18.86
2023-05-22T05:42:56.712Z,18.87
2023-05-22T05:45:23.774Z,18.91
2023-05-22T05:47:50.903Z,18.92
2023-05-22T05:50:18.336Z,19.01
2023-05-22T05:52:45.379Z,19.11
2023-05-22T05:55:12.466Z,19.16
2023-05-22T05:57:39.744Z,19.17
2023-05-22T06:00:10.252Z,19.21
2023-05-22T06:02:38.423Z,19.22
2023-05-22T06:05:05.953Z,19.28
2023-05-22T06:07:32.992Z,19.30
2023-05-22T06:10:00.304Z,19.30
2023-05-22T06:12:27.380Z,19.31
2023-05-22T06:14:54.533Z,19.32
2023-05-22T06:17:21.798Z,19.33
2023-05-22T06:19:48.851Z,19.33
2023-05-22T06:22:16.140Z,19.34
2023-05-22T06:24:43.168Z,19.35
2023-05-22T06:27:10.216Z,19.44
2023-05-22T06:29:37.378Z,19.50
2023-05-22T06:32:04.670Z,19.55
2023-05-22T06:34:31.922Z,19.61
2023-05-22T06:36:59.024Z,19.68
2023-05-22T06:39:26.476Z,19.81
2023-05-22T06:41:53.630Z,19.92
2023-05-22T06:44:21.091Z,19.94
2023-05-22T06:46:48.152Z,19.93
2023-05-22T06:49:15.308Z,19.89
2023-05-22T06:51:43.360Z,19.88
2023-05-22T06:54:12.528Z,19.88
2023-05-22T06:56:42.707Z,19.87
2023-05-22T06:59:12.110Z,19.89
2023-05-22T07:01:39.254Z,19.96
2023-05-22T07:04:06.532Z,20.00
2023-05-22T07:06:39.221Z,20.12
2023-05-22T07:09:06.692Z,20.19
2023-05-22T07:11:34.104Z,20.23
2023-05-22T07:14:02.190Z,20.28
2023-05-22T07:16:31.339Z,20.30
2023-05-22T07:18:58.659Z,20.30
2023-05-22T07:21:25.900Z,20.30
2023-05-22T07:23:53.168Z,20.32
2023-05-22T07:26:20.282Z,20.36
2023-05-22T07:28:48.435Z,20.43
2023-05-22T07:31:15.584Z,20.44
2023-05-22T07:33:42.853Z,20.48
2023-05-22T07:36:10.417Z,20.42
2023-05-22T07:38:37.421Z,20.35
2023-05-22T07:41:05.125Z,20.33
2023-05-22T07:43:32.181Z,20.31
2023-05-22T07:45:59.317Z,20.31
2023-05-22T07:48:26.461Z,20.20
2023-05-22T07:50:53.519Z,20.18
2023-05-22T07:53:21.017Z,20.10
2023-05-22T07:55:48.149Z,20.08
2023-05-22T07:58:15.712Z,20.03
2023-05-22T08:00:42.876Z,20.00
2023-05-22T08:03:10.010Z,19.93
2023-05-22T08:05:37.268Z,19.86
2023-05-22T08:08:04.941Z,19.69
2023-05-22T08:10:46.498Z,19.55
2023-05-22T08:13:19.675Z,19.46
2023-05-22T08:15:46.808Z,19.38
2023-05-22T08:18:14.001Z,19.34
2023-05-22T08:20:41.252Z,19.32
2023-05-22T08:23:08.708Z,19.32
2023-05-22T08:25:35.823Z,19.32
2023-05-22T08:28:03.065Z,19.27
2023-05-22T08:30:30.337Z,19.21
2023-05-22T08:32:57.445Z,19.22
2023-05-22T08:35:24.469Z,19.23
2023-05-22T08:37:51.933Z,19.22
2023-05-22T08:40:20.548Z,19.23
2023-05-22T08:42:48.217Z,19.20
2023-05-22T08:45:16.429Z,19.27
2023-05-22T08:47:44.850Z,19.33
2023-05-22T08:50:12.754Z,19.34
2023-05-22T08:52:48.477Z,19.34
2023-05-22T08:55:16.752Z,19.38
2023-05-22T08:57:44.756Z,19.43
2023-05-22T09:00:12.713Z,19.48
2023-05-22T09:02:40.099Z,19.52
2023-05-22T09:05:08.052Z,19.55
2023-05-22T09:07:36.118Z,19.55
2023-05-22T09:10:05.460Z,19.56
2023-05-22T09:12:33.382Z,19.57
2023-05-22T09:15:10.204Z,19.62
2023-05-22T09:17:41.441Z,19.57
2023-05-22T09:20:13.465Z,19.54
2023-05-22T09:22:40.591Z,19.56
2023-05-22T09:25:08.174Z,19.55
2023-05-22T09:27:35.428Z,19.56
2023-05-22T09:30:02.757Z,19.56
2023-05-22T09:32:31.373Z,19.56
2023-05-22T09:35:05.253Z,19.58
2023-05-22T09:37:36.900Z,19.58
2023-05-22T09:40:12.057Z,19.61
2023-05-22T09:42:39.297Z,19.62
2023-05-22T09:45:07.796Z,19.68
2023-05-22T09:47:35.561Z,19.74
2023-05-22T09:50:06.512Z,19.85
2023-05-22T09:52:35.440Z,19.93
2023-05-22T09:55:04.813Z,19.96
2023-05-22T09:57:36.711Z,20.05
2023-05-22T10:00:09.549Z,20.19
2023-05-22T10:02:38.379Z,20.29
2023-05-22T10:05:08.524Z,20.43
2023-05-22T10:07:42.092Z,20.47
2023-05-22T10:10:11.575Z,20.51
2023-05-22T10:12:43.668Z,20.58
2023-05-22T10:15:11.942Z,20.58
2023-05-22T10:17:41.012Z,20.66
2023-05-22T10:20:09.239Z,20.78
2023-05-22T10:22:38.322Z,20.84
2023-05-22T10:25:08.534Z,20.92
2023-05-22T10:27:37.250Z,20.93
2023-05-22T10:30:10.510Z,21.00
2023-05-22T10:33:01.894Z,21.02
2023-05-22T10:35:40.130Z,21.01
2023-05-22T10:38:19.275Z,20.98
2023-05-22T10:40:48.176Z,20.99
2023-05-22T10:43:15.527Z,20.88
2023-05-22T10:45:45.478Z,20.85
2023-05-22T10:48:13.027Z,20.83
2023-05-22T10:50:41.034Z,20.79
2023-05-22T10:53:23.631Z,20.85
2023-05-22T10:55:53.014Z,20.78
2023-05-22T10:58:56.661Z,20.75
2023-05-22T11:01:26.750Z,20.69
2023-05-22T11:04:01.041Z,20.66
2023-05-22T11:06:49.179Z,20.68
2023-05-22T11:09:31.204Z,20.69
2023-05-22T11:12:24.379Z,20.70
2023-05-22T11:14:56.587Z,20.67
2023-05-22T11:17:29.267Z,20.71
2023-05-22T11:20:05.449Z,20.73
2023-05-22T11:22:52.304Z,20.80
2023-05-22T11:25:20.410Z,20.81
2023-05-22T11:27:48.625Z,20.87
2023-05-22T11:30:16.820Z,20.89
2023-05-22T11:32:45.824Z,20.90
2023-05-22T11:35:17.967Z,20.87
2023-05-22T11:37:45.679Z,20.85
2023-05-22T11:40:21.356Z,20.87
2023-05-22T11:42:48.645Z,20.86
2023-05-22T11:45:15.902Z,20.89
2023-05-22T11:47:43.786Z,20.92
2023-05-22T11:50:13.023Z,20.94
2023-05-22T11:52:42.101Z,20.96
2023-05-22T11:55:12.344Z,20.94
2023-05-22T11:57:39.750Z,20.92
2023-05-22T12:00:09.003Z,20.90
2023-05-22T12:02:37.127Z,20.86
2023-05-22T12:05:04.777Z,20.89
2023-05-22T12:07:32.024Z,20.87
2023-05-22T12:09:59.256Z,20.87
2023-05-22T12:12:26.482Z,20.84
2023-05-22T12:14:53.571Z,20.82
2023-05-22T12:17:20.684Z,20.76
2023-05-22T12:19:47.911Z,20.76
2023-05-22T12:22:15.050Z,20.75
2023-05-22T12:24:46.265Z,20.77
2023-05-22T12:27:14.626Z,20.81
2023-05-22T12:29:43.243Z,20.84
2023-05-22T12:32:11.967Z,20.84
2023-05-22T12:34:47.750Z,20.88
2023-05-22T12:37:22.913Z,20.93
2023-05-22T12:40:04.106Z,20.98
2023-05-22T12:42:31.328Z,20.98
2023-05-22T12:45:00.082Z,21.02
2023-05-22T12:47:27.321Z,21.00
2023-05-22T12:49:54.499Z,20.96
2023-05-22T12:52:24.731Z,20.92
2023-05-22T12:54:52.019Z,20.91
2023-05-22T12:57:19.109Z,20.93
2023-05-22T12:59:46.191Z,20.98
2023-05-22T13:02:13.318Z,21.00
2023-05-22T13:04:40.407Z,21.09
2023-05-22T13:07:07.509Z,21.13
2023-05-22T13:09:34.663Z,21.20
2023-05-22T13:12:01.817Z,21.26
2023-05-22T13:14:29.139Z,21.32
2023-05-22T13:16:56.225Z,21.29
2023-05-22T13:19:23.406Z,21.24
2023-05-22T13:21:50.460Z,21.27
2023-05-22T13:24:17.569Z,21.35
2023-05-22T13:26:44.603Z,21.45
2023-05-22T13:29:15.362Z,21.55
2023-05-22T13:31:48.299Z,21.80
2023-05-22T13:34:15.621Z,21.78
2023-05-22T13:36:42.846Z,21.74
2023-05-22T13:39:10.048Z,21.89
2023-05-22T13:41:37.184Z,22.05
2023-05-22T13:44:04.254Z,22.15
2023-05-22T13:46:31.381Z,22.29
2023-05-22T13:48:59.524Z,22.44
2023-05-22T13:51:26.623Z,22.50
2023-05-22T13:53:53.890Z,22.47
2023-05-22T13:56:23.586Z,22.56
2023-05-22T13:58:50.756Z,22.58
2023-05-22T14:01:17.896Z,22.60
2023-05-22T14:03:45.122Z,22.68
2023-05-22T14:06:12.427Z,22.86
2023-05-22T14:08:39.467Z,22.85
2023-05-22T14:11:06.794Z,22.83
2023-05-22T14:13:33.934Z,22.82
2023-05-22T14:16:00.974Z,22.74
2023-05-22T14:18:28.083Z,22.74
2023-05-22T14:20:55.188Z,22.82
2023-05-22T14:23:22.349Z,22.88
2023-05-22T14:25:49.602Z,22.95
2023-05-22T14:28:16.822Z,23.10
2023-05-22T14:30:44.015Z,23.29
2023-05-22T14:33:11.698Z,23.37
2023-05-22T14:35:39.112Z,23.30
2023-05-22T14:38:06.447Z,23.10
2023-05-22T14:40:33.646Z,22.91
2023-05-22T14:43:00.684Z,22.81
2023-05-22T14:45:27.964Z,22.76
2023-05-22T14:47:55.135Z,22.94
2023-05-22T14:50:22.351Z,23.24
2023-05-22T14:52:49.925Z,23.60
2023-05-22T14:55:17.873Z,23.71
2023-05-22T14:57:45.338Z,23.74
2023-05-22T15:00:12.942Z,23.83
2023-05-22T15:02:40.987Z,23.89
2023-05-22T15:05:08.945Z,23.81
2023-05-22T15:07:43.803Z,23.57
2023-05-22T15:10:11.626Z,23.57
2023-05-22T15:12:38.667Z,23.61
2023-05-22T15:15:06.313Z,23.64
2023-05-22T15:17:33.469Z,23.46
2023-05-22T15:20:00.632Z,23.28
2023-05-22T15:22:27.679Z,23.14
2023-05-22T15:25:09.394Z,22.98
2023-05-22T15:27:36.522Z,22.83
2023-05-22T15:30:05.591Z,22.82
2023-05-22T15:32:33.298Z,22.76
2023-05-22T15:35:00.721Z,22.73
2023-05-22T15:37:29.727Z,22.97
2023-05-22T15:39:58.619Z,23.30
2023-05-22T15:42:25.662Z,23.64
2023-05-22T15:44:52.797Z,23.84
2023-05-22T15:47:19.924Z,23.95
2023-05-22T15:49:46.977Z,23.97
2023-05-22T15:52:14.169Z,23.75
2023-05-22T15:54:41.412Z,23.52
2023-05-22T15:57:08.491Z,23.22
2023-05-22T15:59:35.536Z,23.01
2023-05-22T16:02:02.753Z,22.80
2023-05-22T16:04:29.779Z,22.65
2023-05-22T16:06:56.897Z,22.50
2023-05-22T16:09:23.941Z,22.43
2023-05-22T16:11:51.041Z,22.40
2023-05-22T16:14:18.193Z,22.31
2023-05-22T16:16:45.364Z,22.17
2023-05-22T16:19:12.485Z,22.12
2023-05-22T16:21:39.649Z,22.10
2023-05-22T16:24:07.292Z,22.10
2023-05-22T16:26:34.464Z,22.17
2023-05-22T16:29:01.520Z,22.32
2023-05-22T16:31:28.987Z,22.39
2023-05-22T16:33:56.104Z,22.39
2023-05-22T16:36:25.102Z,22.34
2023-05-22T16:38:53.512Z,22.20
2023-05-22T16:41:20.752Z,22.02
2023-05-22T16:43:47.839Z,21.84
2023-05-22T16:46:15.304Z,21.74
2023-05-22T16:48:42.401Z,21.66
2023-05-22T16:51:10.617Z,21.59
2023-05-22T16:53:38.644Z,21.53
2023-05-22T16:56:06.104Z,21.50
2023-05-22T16:58:33.305Z,21.59
2023-05-22T17:01:00.797Z,21.60
2023-05-22T17:03:27.980Z,21.52
2023-05-22T17:05:55.228Z,21.48
2023-05-22T17:08:22.347Z,21.45
2023-05-22T17:10:49.425Z,21.39
2023-05-22T17:13:21.168Z,21.41
2023-05-22T17:15:49.045Z,21.34
2023-05-22T17:18:19.937Z,21.31
2023-05-22T17:20:48.204Z,21.22
2023-05-22T17:23:16.203Z,21.21
2023-05-22T17:25:44.309Z,21.18
2023-05-22T17:28:11.455Z,21.03
2023-05-22T17:30:38.673Z,20.96
2023-05-22T17:33:06.117Z,20.87
2023-05-22T17:35:33.236Z,20.83
2023-05-22T17:38:00.330Z,20.76
2023-05-22T17:40:40.413Z,20.68
2023-05-22T17:43:11.672Z,20.58
2023-05-22T17:45:38.826Z,20.48
2023-05-22T17:48:07.240Z,20.44
2023-05-22T17:50:34.996Z,20.50
2023-05-22T17:53:02.179Z,20.49
2023-05-22T17:55:29.347Z,20.51
2023-05-22T17:57:56.559Z,20.51
2023-05-22T18:00:23.798Z,20.50
2023-05-22T18:02:51.304Z,20.48
2023-05-22T18:05:18.881Z,20.48
2023-05-22T18:07:46.258Z,20.49
2023-05-22T18:10:13.342Z,20.52
2023-05-22T18:12:40.739Z,20.54
2023-05-22T18:15:10.785Z,20.53
2023-05-22T18:17:38.705Z,20.54
2023-05-22T18:20:08.386Z,20.53
2023-05-22T18:22:38.558Z,20.55
2023-05-22T18:25:07.202Z,20.58
2023-05-22T18:27:35.588Z,20.55
2023-05-22T18:30:04.174Z,20.52
2023-05-22T18:32:32.136Z,20.49
2023-05-22T18:35:00.103Z,20.48
2023-05-22T18:37:27.323Z,20.50
2023-05-22T18:39:54.391Z,20.51
2023-05-22T18:42:21.644Z,20.50
2023-05-22T18:44:49.803Z,20.47
2023-05-22T18:47:17.357Z,20.47
2023-05-22T18:49:44.760Z,20.42
2023-05-22T18:52:12.070Z,20.39
2023-05-22T18:54:39.867Z,20.41
2023-05-22T18:57:07.102Z,20.38
2023-05-22T18:59:34.159Z,20.35
2023-05-22T19:02:01.273Z,20.33
2023-05-22T19:04:28.850Z,20.33
2023-05-22T19:06:56.867Z,20.30
2023-05-22T19:09:24.831Z,20.27
2023-05-22T19:11:51.940Z,20.23
2023-05-22T19:14:19.036Z,20.18
2023-05-22T19:16:46.224Z,20.20
2023-05-22T19:19:14.951Z,20.17
2023-05-22T19:21:42.240Z,20.16
2023-05-22T19:24:09.475Z,20.15
2023-05-22T19:26:36.612Z,20.09
2023-05-22T19:29:03.785Z,20.02
2023-05-22T19:31:31.159Z,19.94
2023-05-22T19:33:58.362Z,19.88
2023-05-22T19:36:25.659Z,19.81
2023-05-22T19:38:53.875Z,19.79
2023-05-22T19:41:21.971Z,19.75
2023-05-22T19:43:49.461Z,19.72
2023-05-22T19:46:16.564Z,19.67
2023-05-22T19:48:43.752Z,19.66
2023-05-22T19:51:11.039Z,19.58
2023-05-22T19:53:38.322Z,19.49
2023-05-22T19:56:05.472Z,19.42
2023-05-22T19:58:32.631Z,19.38
2023-05-22T20:00:59.804Z,19.35
2023-05-22T20:03:27.037Z,19.32
2023-05-22T20:05:54.303Z,19.34
2023-05-22T20:08:22.653Z,19.28
2023-05-22T20:10:49.911Z,19.26
2023-05-22T20:13:17.065Z,19.26
2023-05-22T20:15:48.002Z,19.24
2023-05-22T20:18:15.204Z,19.22
2023-05-22T20:20:42.917Z,19.19
2023-05-22T20:23:09.975Z,19.14
2023-05-22T20:25:38.001Z,19.09
2023-05-22T20:28:05.515Z,19.03
2023-05-22T20:30:32.854Z,19.00
2023-05-22T20:32:59.995Z,19.05
2023-05-22T20:35:27.297Z,18.97
2023-05-22T20:37:54.349Z,18.90
2023-05-22T20:40:21.992Z,18.86
2023-05-22T20:42:49.394Z,18.80
2023-05-22T20:45:16.598Z,18.80
2023-05-22T20:47:43.964Z,18.77
2023-05-22T20:50:11.456Z,18.70
2023-05-22T20:52:38.516Z,18.59
2023-05-22T20:55:06.970Z,18.58
2023-05-22T20:57:34.619Z,18.59
2023-05-22T21:00:02.114Z,18.62
2023-05-22T21:02:29.622Z,18.59
2023-05-22T21:04:56.731Z,18.49
2023-05-22T21:07:23.938Z,18.40
2023-05-22T21:09:51.151Z,18.34
2023-05-22T21:12:18.200Z,18.33
2023-05-22T21:14:47.124Z,18.23
2023-05-22T21:17:14.372Z,18.16
2023-05-22T21:19:41.722Z,18.12
2023-05-22T21:22:09.022Z,18.06
2023-05-22T21:24:36.164Z,18.00
2023-05-22T21:27:03.353Z,18.03
2023-05-22T21:29:30.550Z,18.04
2023-05-22T21:31:57.736Z,18.02
2023-05-22T21:34:24.889Z,17.95
2023-05-22T21:36:52.008Z,17.88
2023-05-22T21:39:19.221Z,17.86
2023-05-22T21:41:48.019Z,17.81
2023-05-22T21:44:16.431Z,17.80
2023-05-22T21:46:43.506Z,17.75
2023-05-22T21:49:10.669Z,17.79
2023-05-22T21:51:37.855Z,17.83
2023-05-22T21:54:05.002Z,17.85
2023-05-22T21:56:32.054Z,17.83
2023-05-22T21:58:59.337Z,17.81
2023-05-22T22:01:26.406Z,17.82
2023-05-22T22:03:53.973Z,17.87
2023-05-22T22:06:21.301Z,17.81
2023-05-22T22:08:48.379Z,17.83
2023-05-22T22:11:15.482Z,17.85
2023-05-22T22:13:42.763Z,17.75
2023-05-22T22:16:09.912Z,17.74
2023-05-22T22:18:37.205Z,17.76
2023-05-22T22:21:04.772Z,17.79
2023-05-22T22:23:31.874Z,17.76
2023-05-22T22:25:58.928Z,17.67
2023-05-22T22:28:26.047Z,17.74
2023-05-22T22:30:55.324Z,17.76
2023-05-22T22:33:23.002Z,17.71
2023-05-22T22:35:50.164Z,17.59
2023-05-22T22:38:17.264Z,17.62
2023-05-22T22:40:44.365Z,17.56
2023-05-22T22:43:11.391Z,17.53
2023-05-22T22:45:40.219Z,17.52
2023-05-22T22:48:07.689Z,17.57
2023-05-22T22:50:34.900Z,17.50
2023-05-22T22:53:01.948Z,17.49
2023-05-22T22:55:29.274Z,17.43
2023-05-22T22:57:56.478Z,17.48
2023-05-22T23:00:23.917Z,17.44
2023-05-22T23:02:51.266Z,17.41
2023-05-22T23:05:20.568Z,17.35
2023-05-22T23:07:48.309Z,17.18
2023-05-22T23:10:16.067Z,17.16
2023-05-22T23:12:43.353Z,17.17
2023-05-22T23:15:13.228Z,17.22
2023-05-22T23:17:43.519Z,17.26
2023-05-22T23:20:11.145Z,17.04
2023-05-22T23:22:38.247Z,17.03
2023-05-22T23:25:06.043Z,17.05
2023-05-22T23:27:33.214Z,17.02
2023-05-22T23:30:00.401Z,17.08
2023-05-22T23:32:27.506Z,17.13
2023-05-22T23:34:54.587Z,17.06
2023-05-22T23:37:21.691Z,17.04
2023-05-22T23:39:48.786Z,17.01
2023-05-22T23:42:17.173Z,16.99
2023-05-22T23:44:44.264Z,16.94
2023-05-22T23:47:11.381Z,16.93
2023-05-22T23:49:38.410Z,16.88
2023-05-22T23:52:05.652Z,16.88
2023-05-22T23:54:32.707Z,16.96
2023-05-22T23:56:59.828Z,16.87
2023-05-22T23:59:26.879Z,16.75
